sensor_id;sensor_type;location;lat;lon;timestamp;temperature;humidity
3344;DHT22;1685;53.104;8.228;2022-09-06T00:05:49;19.70;99.60
3344;DHT22;1685;53.104;8.228;2022-09-06T00:15:38;19.80;99.90
3344;DHT22;1685;53.104;8.228;2022-09-06T00:18:06;19.60;99.90
3344;DHT22;1685;53.104;8.228;2022-09-06T00:20:33;19.70;99.90
3344;DHT22;1685;53.104;8.228;2022-09-06T00:23:04;19.60;99.90
3344;DHT22;1685;53.104;8.228;2022-09-06T00:25:32;19.50;99.90
3344;DHT22;1685;53.104;8.228;2022-09-06T00:28:01;19.50;99.90
3344;DHT22;1685;53.104;8.228;2022-09-06T00:30:29;19.50;99.90
3344;DHT22;1685;53.104;8.228;2022-09-06T00:35:24;19.40;99.90
3344;DHT22;1685;53.104;8.228;2022-09-06T00:37:55;19.30;99.90
3344;DHT22;1685;53.104;8.228;2022-09-06T00:40:23;19.20;99.90
3344;DHT22;1685;53.104;8.228;2022-09-06T00:50:14;19.30;99.90
3344;DHT22;1685;53.104;8.228;2022-09-06T00:52:42;19.50;99.90
3344;DHT22;1685;53.104;8.228;2022-09-06T00:55:10;19.30;99.90
3344;DHT22;1685;53.104;8.228;2022-09-06T00:57:39;19.20;99.90
3344;DHT22;1685;53.104;8.228;2022-09-06T01:00:07;19.40;99.90
3344;DHT22;1685;53.104;8.228;2022-09-06T01:07:39;19.10;99.90
3344;DHT22;1685;53.104;8.228;2022-09-06T01:10:28;19.20;99.90
3344;DHT22;1685;53.104;8.228;2022-09-06T01:13:03;19.40;99.90
3344;DHT22;1685;53.104;8.228;2022-09-06T01:15:36;19.00;99.90
3344;DHT22;1685;53.104;8.228;2022-09-06T01:18:16;19.10;99.90
3344;DHT22;1685;53.104;8.228;2022-09-06T01:20:56;19.10;99.90
3344;DHT22;1685;53.104;8.228;2022-09-06T01:23:50;19.20;99.90
3344;DHT22;1685;53.104;8.228;2022-09-06T01:29:21;19.10;99.90
3344;DHT22;1685;53.104;8.228;2022-09-06T01:31:53;19.10;99.90
3344;DHT22;1685;53.104;8.228;2022-09-06T01:34:25;19.10;99.90
3344;DHT22;1685;53.104;8.228;2022-09-06T01:36:55;19.00;99.90
3344;DHT22;1685;53.104;8.228;2022-09-06T01:39:27;19.30;99.90
3344;DHT22;1685;53.104;8.228;2022-09-06T01:41:55;19.00;99.90
3344;DHT22;1685;53.104;8.228;2022-09-06T01:44:25;19.10;99.90
3344;DHT22;1685;53.104;8.228;2022-09-06T01:47:00;19.00;99.90
3344;DHT22;1685;53.104;8.228;2022-09-06T01:49:36;18.80;99.90
3344;DHT22;1685;53.104;8.228;2022-09-06T01:52:12;18.80;99.90
3344;DHT22;1685;53.104;8.228;2022-09-06T01:54:56;18.90;99.90
3344;DHT22;1685;53.104;8.228;2022-09-06T01:57:38;19.00;99.90
3344;DHT22;1685;53.104;8.228;2022-09-06T02:00:10;19.00;99.90
3344;DHT22;1685;53.104;8.228;2022-09-06T02:03:00;19.00;99.90
3344;DHT22;1685;53.104;8.228;2022-09-06T02:05:33;18.80;99.90
3344;DHT22;1685;53.104;8.228;2022-09-06T02:08:10;18.80;99.90
3344;DHT22;1685;53.104;8.228;2022-09-06T02:10:42;18.70;99.90
3344;DHT22;1685;53.104;8.228;2022-09-06T02:13:13;18.80;99.90
3344;DHT22;1685;53.104;8.228;2022-09-06T02:15:44;18.60;99.90
3344;DHT22;1685;53.104;8.228;2022-09-06T02:18:15;18.50;99.90
3344;DHT22;1685;53.104;8.228;2022-09-06T02:20:46;18.60;99.90
3344;DHT22;1685;53.104;8.228;2022-09-06T02:25:44;18.40;99.90
3344;DHT22;1685;53.104;8.228;2022-09-06T02:30:44;18.30;99.90
3344;DHT22;1685;53.104;8.228;2022-09-06T02:33:15;18.30;99.90
3344;DHT22;1685;53.104;8.228;2022-09-06T02:35:45;18.30;99.90
3344;DHT22;1685;53.104;8.228;2022-09-06T02:38:13;18.20;99.90
3344;DHT22;1685;53.104;8.228;2022-09-06T02:40:41;18.10;99.90
3344;DHT22;1685;53.104;8.228;2022-09-06T02:48:04;18.10;99.90
3344;DHT22;1685;53.104;8.228;2022-09-06T02:53:02;18.00;99.90
3344;DHT22;1685;53.104;8.228;2022-09-06T03:02:50;18.10;99.90
3344;DHT22;1685;53.104;8.228;2022-09-06T03:05:19;18.20;99.90
3344;DHT22;1685;53.104;8.228;2022-09-06T03:10:13;18.20;99.90
3344;DHT22;1685;53.104;8.228;2022-09-06T03:12:41;18.20;99.90
3344;DHT22;1685;53.104;8.228;2022-09-06T03:15:08;18.30;99.90
3344;DHT22;1685;53.104;8.228;2022-09-06T03:17:35;18.30;99.90
3344;DHT22;1685;53.104;8.228;2022-09-06T03:20:03;18.20;99.90
3344;DHT22;1685;53.104;8.228;2022-09-06T03:22:31;18.20;99.90
3344;DHT22;1685;53.104;8.228;2022-09-06T03:32:19;18.50;99.90
3344;DHT22;1685;53.104;8.228;2022-09-06T03:39:41;17.80;99.90
3344;DHT22;1685;53.104;8.228;2022-09-06T03:51:56;18.30;99.90
3344;DHT22;1685;53.104;8.228;2022-09-06T03:54:23;18.30;99.90
3344;DHT22;1685;53.104;8.228;2022-09-06T03:56:53;18.30;99.90
3344;DHT22;1685;53.104;8.228;2022-09-06T04:14:04;18.20;99.90
3344;DHT22;1685;53.104;8.228;2022-09-06T04:31:16;18.10;99.90
3344;DHT22;1685;53.104;8.228;2022-09-06T04:33:43;17.90;99.90
3344;DHT22;1685;53.104;8.228;2022-09-06T04:36:11;18.00;99.90
3344;DHT22;1685;53.104;8.228;2022-09-06T04:38:40;18.00;99.90
3344;DHT22;1685;53.104;8.228;2022-09-06T04:41:08;18.00;99.90
3344;DHT22;1685;53.104;8.228;2022-09-06T04:46:04;18.00;99.90
3344;DHT22;1685;53.104;8.228;2022-09-06T04:48:33;17.90;99.90
3344;DHT22;1685;53.104;8.228;2022-09-06T04:55:56;18.10;99.90
3344;DHT22;1685;53.104;8.228;2022-09-06T04:58:23;18.10;99.90
3344;DHT22;1685;53.104;8.228;2022-09-06T05:03:17;18.10;99.90
3344;DHT22;1685;53.104;8.228;2022-09-06T05:05:45;17.80;99.90
3344;DHT22;1685;53.104;8.228;2022-09-06T05:08:12;17.90;99.90
3344;DHT22;1685;53.104;8.228;2022-09-06T05:15:33;18.10;99.90
3344;DHT22;1685;53.104;8.228;2022-09-06T05:18:00;18.00;99.90
3344;DHT22;1685;53.104;8.228;2022-09-06T05:20:28;17.90;99.90
3344;DHT22;1685;53.104;8.228;2022-09-06T05:22:56;17.90;99.90
3344;DHT22;1685;53.104;8.228;2022-09-06T05:25:23;18.10;99.90
3344;DHT22;1685;53.104;8.228;2022-09-06T05:30:17;17.90;99.90
3344;DHT22;1685;53.104;8.228;2022-09-06T05:35:12;17.10;99.90
3344;DHT22;1685;53.104;8.228;2022-09-06T05:40:08;16.30;99.90
3344;DHT22;1685;53.104;8.228;2022-09-06T05:42:35;16.00;99.90
3344;DHT22;1685;53.104;8.228;2022-09-06T05:45:01;16.00;99.90
3344;DHT22;1685;53.104;8.228;2022-09-06T05:47:28;15.70;99.90
3344;DHT22;1685;53.104;8.228;2022-09-06T05:49:58;15.50;99.90
3344;DHT22;1685;53.104;8.228;2022-09-06T05:52:25;15.60;99.90
3344;DHT22;1685;53.104;8.228;2022-09-06T05:54:52;15.60;99.90
3344;DHT22;1685;53.104;8.228;2022-09-06T05:57:20;15.30;99.90
3344;DHT22;1685;53.104;8.228;2022-09-06T05:59:47;15.40;99.90
3344;DHT22;1685;53.104;8.228;2022-09-06T06:02:14;15.40;99.90
3344;DHT22;1685;53.104;8.228;2022-09-06T06:07:07;15.20;99.90
3344;DHT22;1685;53.104;8.228;2022-09-06T06:09:34;15.20;99.90
3344;DHT22;1685;53.104;8.228;2022-09-06T06:12:01;15.20;99.90
3344;DHT22;1685;53.104;8.228;2022-09-06T06:14:29;15.00;99.90
3344;DHT22;1685;53.104;8.228;2022-09-06T06:21:52;15.00;99.90
3344;DHT22;1685;53.104;8.228;2022-09-06T06:26:47;14.70;99.90
3344;DHT22;1685;53.104;8.228;2022-09-06T06:31:42;14.80;99.90
3344;DHT22;1685;53.104;8.228;2022-09-06T06:36:36;14.80;99.90
3344;DHT22;1685;53.104;8.228;2022-09-06T06:39:04;14.30;99.90
3344;DHT22;1685;53.104;8.228;2022-09-06T06:44:01;14.80;99.90
3344;DHT22;1685;53.104;8.228;2022-09-06T06:46:29;14.80;99.90
3344;DHT22;1685;53.104;8.228;2022-09-06T06:48:58;14.80;99.90
3344;DHT22;1685;53.104;8.228;2022-09-06T06:51:26;14.70;99.90
3344;DHT22;1685;53.104;8.228;2022-09-06T06:56:22;15.00;99.90
3344;DHT22;1685;53.104;8.228;2022-09-06T06:58:51;14.80;99.90
3344;DHT22;1685;53.104;8.228;2022-09-06T07:01:19;15.00;99.90
3344;DHT22;1685;53.104;8.228;2022-09-06T07:06:15;14.90;99.90
3344;DHT22;1685;53.104;8.228;2022-09-06T07:08:43;15.10;99.90
3344;DHT22;1685;53.104;8.228;2022-09-06T07:11:11;15.20;99.90
3344;DHT22;1685;53.104;8.228;2022-09-06T07:16:10;15.20;99.90
3344;DHT22;1685;53.104;8.228;2022-09-06T07:18:38;15.40;99.90
3344;DHT22;1685;53.104;8.228;2022-09-06T07:21:10;15.20;99.90
3344;DHT22;1685;53.104;8.228;2022-09-06T07:23:39;15.40;99.90
3344;DHT22;1685;53.104;8.228;2022-09-06T07:31:00;15.50;99.90
3344;DHT22;1685;53.104;8.228;2022-09-06T07:35:56;15.80;99.90
3344;DHT22;1685;53.104;8.228;2022-09-06T07:40:55;15.70;99.90
3344;DHT22;1685;53.104;8.228;2022-09-06T07:43:22;15.80;99.90
3344;DHT22;1685;53.104;8.228;2022-09-06T07:45:57;15.80;99.90
3344;DHT22;1685;53.104;8.228;2022-09-06T07:58:14;16.20;99.90
3344;DHT22;1685;53.104;8.228;2022-09-06T08:15:25;16.60;99.90
3344;DHT22;1685;53.104;8.228;2022-09-06T08:32:40;16.50;99.90
3344;DHT22;1685;53.104;8.228;2022-09-06T08:35:08;16.60;99.90
3344;DHT22;1685;53.104;8.228;2022-09-06T08:42:30;16.60;99.90
3344;DHT22;1685;53.104;8.228;2022-09-06T08:44:57;16.50;99.90
3344;DHT22;1685;53.104;8.228;2022-09-06T08:49:59;16.50;99.90
3344;DHT22;1685;53.104;8.228;2022-09-06T08:52:55;16.50;99.90
3344;DHT22;1685;53.104;8.228;2022-09-06T08:55:34;16.50;99.90
3344;DHT22;1685;53.104;8.228;2022-09-06T08:58:18;16.60;99.90
3344;DHT22;1685;53.104;8.228;2022-09-06T09:00:51;16.80;99.90
3344;DHT22;1685;53.104;8.228;2022-09-06T09:03:24;17.10;99.90
3344;DHT22;1685;53.104;8.228;2022-09-06T09:05:55;17.00;99.90
3344;DHT22;1685;53.104;8.228;2022-09-06T09:08:27;17.10;99.90
3344;DHT22;1685;53.104;8.228;2022-09-06T09:11:00;17.20;99.90
3344;DHT22;1685;53.104;8.228;2022-09-06T09:13:31;17.10;99.90
3344;DHT22;1685;53.104;8.228;2022-09-06T09:18:28;17.20;99.90
3344;DHT22;1685;53.104;8.228;2022-09-06T09:20:58;17.20;99.90
3344;DHT22;1685;53.104;8.228;2022-09-06T09:25:54;17.20;99.90
3344;DHT22;1685;53.104;8.228;2022-09-06T09:30:53;17.20;99.90
3344;DHT22;1685;53.104;8.228;2022-09-06T09:33:22;17.20;99.90
3344;DHT22;1685;53.104;8.228;2022-09-06T09:38:21;17.30;99.90
3344;DHT22;1685;53.104;8.228;2022-09-06T09:40:50;17.30;99.90
3344;DHT22;1685;53.104;8.228;2022-09-06T09:43:20;17.40;99.90
3344;DHT22;1685;53.104;8.228;2022-09-06T09:46:13;17.40;99.90
3344;DHT22;1685;53.104;8.228;2022-09-06T09:48:44;17.50;99.90
3344;DHT22;1685;53.104;8.228;2022-09-06T09:51:20;17.50;99.90
3344;DHT22;1685;53.104;8.228;2022-09-06T09:53:53;17.50;99.90
3344;DHT22;1685;53.104;8.228;2022-09-06T09:56:36;17.40;99.90
3344;DHT22;1685;53.104;8.228;2022-09-06T09:59:07;17.40;99.90
3344;DHT22;1685;53.104;8.228;2022-09-06T10:04:10;17.50;99.90
3344;DHT22;1685;53.104;8.228;2022-09-06T10:09:18;17.40;99.90
3344;DHT22;1685;53.104;8.228;2022-09-06T10:11:53;17.40;99.90
3344;DHT22;1685;53.104;8.228;2022-09-06T10:14:29;17.60;99.90
3344;DHT22;1685;53.104;8.228;2022-09-06T10:16:57;17.50;99.90
3344;DHT22;1685;53.104;8.228;2022-09-06T10:19:36;17.50;99.90
3344;DHT22;1685;53.104;8.228;2022-09-06T10:22:18;17.70;99.90
3344;DHT22;1685;53.104;8.228;2022-09-06T10:30:04;17.60;99.90
3344;DHT22;1685;53.104;8.228;2022-09-06T10:32:39;17.60;99.90
3344;DHT22;1685;53.104;8.228;2022-09-06T10:35:15;18.00;99.90
3344;DHT22;1685;53.104;8.228;2022-09-06T10:37:48;17.80;99.90
3344;DHT22;1685;53.104;8.228;2022-09-06T10:40:28;18.00;99.90
3344;DHT22;1685;53.104;8.228;2022-09-06T10:42:56;18.10;99.90
3344;DHT22;1685;53.104;8.228;2022-09-06T10:45:37;18.30;99.90
3344;DHT22;1685;53.104;8.228;2022-09-06T10:48:12;18.30;99.90
3344;DHT22;1685;53.104;8.228;2022-09-06T10:50:44;18.50;99.90
3344;DHT22;1685;53.104;8.228;2022-09-06T10:53:25;18.40;99.90
3344;DHT22;1685;53.104;8.228;2022-09-06T10:56:05;18.50;99.90
3344;DHT22;1685;53.104;8.228;2022-09-06T10:58:39;18.50;99.90
3344;DHT22;1685;53.104;8.228;2022-09-06T11:01:09;18.60;99.90
3344;DHT22;1685;53.104;8.228;2022-09-06T11:03:41;18.70;99.90
3344;DHT22;1685;53.104;8.228;2022-09-06T11:06:09;18.50;99.90
3344;DHT22;1685;53.104;8.228;2022-09-06T11:08:42;18.80;99.90
3344;DHT22;1685;53.104;8.228;2022-09-06T11:11:17;18.70;99.90
3344;DHT22;1685;53.104;8.228;2022-09-06T11:16:16;18.70;99.90
3344;DHT22;1685;53.104;8.228;2022-09-06T11:18:47;19.00;99.90
3344;DHT22;1685;53.104;8.228;2022-09-06T11:21:55;19.10;99.90
3344;DHT22;1685;53.104;8.228;2022-09-06T11:24:37;19.20;99.90
3344;DHT22;1685;53.104;8.228;2022-09-06T11:27:12;19.30;99.90
3344;DHT22;1685;53.104;8.228;2022-09-06T11:29:44;19.60;99.90
3344;DHT22;1685;53.104;8.228;2022-09-06T11:32:36;19.80;99.90
3344;DHT22;1685;53.104;8.228;2022-09-06T11:35:06;20.00;99.90
3344;DHT22;1685;53.104;8.228;2022-09-06T11:37:37;20.20;99.90
3344;DHT22;1685;53.104;8.228;2022-09-06T11:40:11;20.20;99.90
3344;DHT22;1685;53.104;8.228;2022-09-06T11:43:14;20.70;99.90
3344;DHT22;1685;53.104;8.228;2022-09-06T11:45:44;20.70;99.90
3344;DHT22;1685;53.104;8.228;2022-09-06T11:51:02;20.50;99.90
3344;DHT22;1685;53.104;8.228;2022-09-06T11:53:32;20.70;99.90
3344;DHT22;1685;53.104;8.228;2022-09-06T11:56:14;20.80;99.90
3344;DHT22;1685;53.104;8.228;2022-09-06T11:58:53;20.90;99.90
3344;DHT22;1685;53.104;8.228;2022-09-06T12:01:36;20.90;99.90
3344;DHT22;1685;53.104;8.228;2022-09-06T12:04:08;21.10;99.90
3344;DHT22;1685;53.104;8.228;2022-09-06T12:06:37;21.20;99.90
3344;DHT22;1685;53.104;8.228;2022-09-06T12:09:27;21.50;99.90
3344;DHT22;1685;53.104;8.228;2022-09-06T12:11:56;21.20;99.90
3344;DHT22;1685;53.104;8.228;2022-09-06T12:14:30;21.10;99.90
3344;DHT22;1685;53.104;8.228;2022-09-06T12:17:24;20.90;99.90
3344;DHT22;1685;53.104;8.228;2022-09-06T12:19:54;20.80;99.90
3344;DHT22;1685;53.104;8.228;2022-09-06T12:25:51;20.60;99.90
3344;DHT22;1685;53.104;8.228;2022-09-06T12:28:23;20.70;99.90
3344;DHT22;1685;53.104;8.228;2022-09-06T12:30:52;20.80;99.90
3344;DHT22;1685;53.104;8.228;2022-09-06T12:33:24;20.90;99.90
3344;DHT22;1685;53.104;8.228;2022-09-06T12:38:23;21.10;99.90
3344;DHT22;1685;53.104;8.228;2022-09-06T12:40:50;21.30;99.90
3344;DHT22;1685;53.104;8.228;2022-09-06T12:45:52;21.70;99.90
3344;DHT22;1685;53.104;8.228;2022-09-06T12:48:29;21.70;99.90
3344;DHT22;1685;53.104;8.228;2022-09-06T12:51:01;22.00;99.90
3344;DHT22;1685;53.104;8.228;2022-09-06T12:56:04;22.10;99.90
3344;DHT22;1685;53.104;8.228;2022-09-06T13:01:06;22.00;99.90
3344;DHT22;1685;53.104;8.228;2022-09-06T13:03:37;21.90;99.90
3344;DHT22;1685;53.104;8.228;2022-09-06T13:06:06;21.90;99.90
3344;DHT22;1685;53.104;8.228;2022-09-06T13:08:35;22.00;99.90
3344;DHT22;1685;53.104;8.228;2022-09-06T13:11:09;21.90;99.90
3344;DHT22;1685;53.104;8.228;2022-09-06T13:16:05;22.00;99.90
3344;DHT22;1685;53.104;8.228;2022-09-06T13:18:34;22.00;99.90
3344;DHT22;1685;53.104;8.228;2022-09-06T13:21:04;22.10;99.90
3344;DHT22;1685;53.104;8.228;2022-09-06T13:23:39;22.10;99.90
3344;DHT22;1685;53.104;8.228;2022-09-06T13:31:03;22.10;99.90
3344;DHT22;1685;53.104;8.228;2022-09-06T13:33:31;22.20;99.90
3344;DHT22;1685;53.104;8.228;2022-09-06T13:36:19;22.20;99.90
3344;DHT22;1685;53.104;8.228;2022-09-06T13:41:35;22.30;99.90
3344;DHT22;1685;53.104;8.228;2022-09-06T13:44:03;22.30;99.90
3344;DHT22;1685;53.104;8.228;2022-09-06T13:49:01;22.30;99.90
3344;DHT22;1685;53.104;8.228;2022-09-06T13:54:03;22.30;99.90
3344;DHT22;1685;53.104;8.228;2022-09-06T14:06:20;22.60;99.90
3344;DHT22;1685;53.104;8.228;2022-09-06T14:23:33;22.80;99.90
3344;DHT22;1685;53.104;8.228;2022-09-06T14:26:01;22.80;99.90
3344;DHT22;1685;53.104;8.228;2022-09-06T14:28:30;22.80;99.90
3344;DHT22;1685;53.104;8.228;2022-09-06T14:31:09;22.80;99.90
3344;DHT22;1685;53.104;8.228;2022-09-06T14:36:06;22.80;99.90
3344;DHT22;1685;53.104;8.228;2022-09-06T14:38:36;22.80;99.90
3344;DHT22;1685;53.104;8.228;2022-09-06T14:46:02;22.80;99.90
3344;DHT22;1685;53.104;8.228;2022-09-06T14:55:52;22.90;99.90
3344;DHT22;1685;53.104;8.228;2022-09-06T15:10:52;23.00;99.90
3344;DHT22;1685;53.104;8.228;2022-09-06T15:28:04;22.80;99.90
3344;DHT22;1685;53.104;8.228;2022-09-06T15:45:17;22.60;99.90
3344;DHT22;1685;53.104;8.228;2022-09-06T15:55:06;22.70;99.90
3344;DHT22;1685;53.104;8.228;2022-09-06T16:00:17;22.40;99.90
3344;DHT22;1685;53.104;8.228;2022-09-06T16:10:09;22.30;99.90
3344;DHT22;1685;53.104;8.228;2022-09-06T16:17:33;22.10;99.90
3344;DHT22;1685;53.104;8.228;2022-09-06T16:34:45;21.80;99.90
3344;DHT22;1685;53.104;8.228;2022-09-06T16:51:58;21.50;99.90
3344;DHT22;1685;53.104;8.228;2022-09-06T17:09:12;21.30;99.90
3344;DHT22;1685;53.104;8.228;2022-09-06T17:24:14;20.90;99.90
3344;DHT22;1685;53.104;8.228;2022-09-06T17:36:31;20.70;99.90
3344;DHT22;1685;53.104;8.228;2022-09-06T17:39:00;20.60;99.90
3344;DHT22;1685;53.104;8.228;2022-09-06T17:41:32;20.60;99.90
3344;DHT22;1685;53.104;8.228;2022-09-06T17:58:52;20.10;99.90
3344;DHT22;1685;53.104;8.228;2022-09-06T18:06:16;19.90;99.90
3344;DHT22;1685;53.104;8.228;2022-09-06T18:08:44;19.90;99.90
3344;DHT22;1685;53.104;8.228;2022-09-06T18:11:14;19.80;99.90
3344;DHT22;1685;53.104;8.228;2022-09-06T18:16:10;19.70;99.90
3344;DHT22;1685;53.104;8.228;2022-09-06T18:26:01;19.50;99.90
3344;DHT22;1685;53.104;8.228;2022-09-06T18:30:56;19.40;99.90
3344;DHT22;1685;53.104;8.228;2022-09-06T18:33:25;19.30;99.90
3344;DHT22;1685;53.104;8.228;2022-09-06T18:40:50;19.20;99.90
3344;DHT22;1685;53.104;8.228;2022-09-06T18:45:45;19.20;99.90
3344;DHT22;1685;53.104;8.228;2022-09-06T18:50:40;18.90;99.90
3344;DHT22;1685;53.104;8.228;2022-09-06T18:53:08;18.80;99.90
3344;DHT22;1685;53.104;8.228;2022-09-06T18:55:35;18.80;99.90
3344;DHT22;1685;53.104;8.228;2022-09-06T19:07:53;18.50;99.90
3344;DHT22;1685;53.104;8.228;2022-09-06T19:20:08;18.30;99.90
3344;DHT22;1685;53.104;8.228;2022-09-06T19:25:06;18.20;99.90
3344;DHT22;1685;53.104;8.228;2022-09-06T19:30:00;18.40;99.90
3344;DHT22;1685;53.104;8.228;2022-09-06T19:34:54;18.00;99.90
3344;DHT22;1685;53.104;8.228;2022-09-06T19:42:17;18.00;99.90
3344;DHT22;1685;53.104;8.228;2022-09-06T19:44:44;17.80;99.90
3344;DHT22;1685;53.104;8.228;2022-09-06T19:47:11;17.90;99.90
3344;DHT22;1685;53.104;8.228;2022-09-06T19:52:05;18.10;99.90
3344;DHT22;1685;53.104;8.228;2022-09-06T19:54:34;17.70;99.90
3344;DHT22;1685;53.104;8.228;2022-09-06T19:59:29;17.80;99.90
3344;DHT22;1685;53.104;8.228;2022-09-06T20:06:53;17.90;99.90
3344;DHT22;1685;53.104;8.228;2022-09-06T20:11:46;17.70;99.90
3344;DHT22;1685;53.104;8.228;2022-09-06T20:14:13;17.60;99.90
3344;DHT22;1685;53.104;8.228;2022-09-06T20:16:41;17.70;99.90
3344;DHT22;1685;53.104;8.228;2022-09-06T20:19:10;17.70;99.90
3344;DHT22;1685;53.104;8.228;2022-09-06T20:21:38;17.60;99.90
3344;DHT22;1685;53.104;8.228;2022-09-06T20:24:05;17.50;99.90
3344;DHT22;1685;53.104;8.228;2022-09-06T20:29:00;17.60;99.90
3344;DHT22;1685;53.104;8.228;2022-09-06T20:31:28;17.50;99.90
3344;DHT22;1685;53.104;8.228;2022-09-06T20:33:58;17.70;99.90
3344;DHT22;1685;53.104;8.228;2022-09-06T20:36:25;17.50;99.90
3344;DHT22;1685;53.104;8.228;2022-09-06T20:41:21;17.50;99.90
3344;DHT22;1685;53.104;8.228;2022-09-06T20:43:49;17.60;99.90
3344;DHT22;1685;53.104;8.228;2022-09-06T20:46:19;17.40;99.90
3344;DHT22;1685;53.104;8.228;2022-09-06T20:48:46;17.50;99.90
3344;DHT22;1685;53.104;8.228;2022-09-06T20:51:15;17.40;99.90
3344;DHT22;1685;53.104;8.228;2022-09-06T20:53:44;17.40;99.90
3344;DHT22;1685;53.104;8.228;2022-09-06T20:56:13;17.30;99.90
3344;DHT22;1685;53.104;8.228;2022-09-06T20:58:41;17.30;99.90
3344;DHT22;1685;53.104;8.228;2022-09-06T21:01:09;17.40;99.90
3344;DHT22;1685;53.104;8.228;2022-09-06T21:03:38;17.30;99.90
3344;DHT22;1685;53.104;8.228;2022-09-06T21:06:07;17.30;99.90
3344;DHT22;1685;53.104;8.228;2022-09-06T21:08:35;17.00;99.90
3344;DHT22;1685;53.104;8.228;2022-09-06T21:11:04;17.20;99.90
3344;DHT22;1685;53.104;8.228;2022-09-06T21:13:32;17.20;99.90
3344;DHT22;1685;53.104;8.228;2022-09-06T21:15:59;17.30;99.90
3344;DHT22;1685;53.104;8.228;2022-09-06T21:18:27;17.50;99.90
3344;DHT22;1685;53.104;8.228;2022-09-06T21:20:55;17.20;99.90
3344;DHT22;1685;53.104;8.228;2022-09-06T21:23:22;17.10;99.90
3344;DHT22;1685;53.104;8.228;2022-09-06T21:25:55;17.30;99.90
3344;DHT22;1685;53.104;8.228;2022-09-06T21:28:22;17.10;99.90
3344;DHT22;1685;53.104;8.228;2022-09-06T21:30:59;17.20;99.90
3344;DHT22;1685;53.104;8.228;2022-09-06T21:33:27;17.40;99.90
3344;DHT22;1685;53.104;8.228;2022-09-06T21:35:57;17.10;99.90
3344;DHT22;1685;53.104;8.228;2022-09-06T21:40:54;17.10;99.90
3344;DHT22;1685;53.104;8.228;2022-09-06T21:43:21;16.90;99.90
3344;DHT22;1685;53.104;8.228;2022-09-06T21:48:14;17.00;99.90
3344;DHT22;1685;53.104;8.228;2022-09-06T21:50:44;17.00;99.90
3344;DHT22;1685;53.104;8.228;2022-09-06T21:53:10;16.90;99.90
3344;DHT22;1685;53.104;8.228;2022-09-06T21:55:37;16.90;99.90
3344;DHT22;1685;53.104;8.228;2022-09-06T21:58:05;16.90;99.90
3344;DHT22;1685;53.104;8.228;2022-09-06T22:00:32;17.10;99.90
3344;DHT22;1685;53.104;8.228;2022-09-06T22:05:26;16.90;99.90
3344;DHT22;1685;53.104;8.228;2022-09-06T22:07:53;17.00;99.90
3344;DHT22;1685;53.104;8.228;2022-09-06T22:10:21;17.00;99.90
3344;DHT22;1685;53.104;8.228;2022-09-06T22:12:48;16.80;99.90
3344;DHT22;1685;53.104;8.228;2022-09-06T22:15:16;17.00;99.90
3344;DHT22;1685;53.104;8.228;2022-09-06T22:17:46;16.80;99.90
3344;DHT22;1685;53.104;8.228;2022-09-06T22:20:12;16.80;99.90
3344;DHT22;1685;53.104;8.228;2022-09-06T22:22:39;16.60;99.90
3344;DHT22;1685;53.104;8.228;2022-09-06T22:25:08;16.70;99.90
3344;DHT22;1685;53.104;8.228;2022-09-06T22:27:35;17.00;99.90
3344;DHT22;1685;53.104;8.228;2022-09-06T22:30:03;16.80;99.90
3344;DHT22;1685;53.104;8.228;2022-09-06T22:32:31;16.90;99.90
3344;DHT22;1685;53.104;8.228;2022-09-06T22:37:25;16.90;99.90
3344;DHT22;1685;53.104;8.228;2022-09-06T22:42:19;16.50;99.90
3344;DHT22;1685;53.104;8.228;2022-09-06T22:47:12;16.50;99.90
3344;DHT22;1685;53.104;8.228;2022-09-06T22:49:41;16.70;99.90
3344;DHT22;1685;53.104;8.228;2022-09-06T22:59:29;16.50;99.90
3344;DHT22;1685;53.104;8.228;2022-09-06T23:01:56;16.60;99.90
3344;DHT22;1685;53.104;8.228;2022-09-06T23:04:23;16.70;99.90
3344;DHT22;1685;53.104;8.228;2022-09-06T23:06:51;16.40;99.90
3344;DHT22;1685;53.104;8.228;2022-09-06T23:11:45;16.50;99.90
3344;DHT22;1685;53.104;8.228;2022-09-06T23:19:06;16.50;99.90
3344;DHT22;1685;53.104;8.228;2022-09-06T23:24:01;16.50;99.90
3344;DHT22;1685;53.104;8.228;2022-09-06T23:26:30;16.40;99.90
3344;DHT22;1685;53.104;8.228;2022-09-06T23:28:57;16.40;99.90
3344;DHT22;1685;53.104;8.228;2022-09-06T23:31:29;16.30;99.90
3344;DHT22;1685;53.104;8.228;2022-09-06T23:33:58;16.40;99.90
3344;DHT22;1685;53.104;8.228;2022-09-06T23:36:25;16.30;99.90
3344;DHT22;1685;53.104;8.228;2022-09-06T23:38:52;16.40;99.90
3344;DHT22;1685;53.104;8.228;2022-09-06T23:41:21;16.60;99.90
3344;DHT22;1685;53.104;8.228;2022-09-06T23:43:48;16.50;99.90
3344;DHT22;1685;53.104;8.228;2022-09-06T23:46:15;16.50;99.90
3344;DHT22;1685;53.104;8.228;2022-09-06T23:48:42;16.50;99.90
3344;DHT22;1685;53.104;8.228;2022-09-06T23:51:09;16.30;99.90
3344;DHT22;1685;53.104;8.228;2022-09-06T23:53:36;16.40;99.90
3344;DHT22;1685;53.104;8.228;2022-09-06T23:56:04;16.60;99.90
3344;DHT22;1685;53.104;8.228;2022-09-06T23:58:32;16.40;99.90
